Time;durP1;ratioP1;P1;durP2;ratioP2;P2;SDS_P1;SDS_P2;PMS_P1;PMS_P2;Temp;Humidity;BMP_temperature;BMP_pressure;BME280_temperature;BME280_humidity;BME280_pressure;Samples;Min_cycle;Max_cycle;Signal;HPM_P1;HPM_P2
2021/12/27 00:36:04;;;;;;;23.47;11.83;;;;;;;7.54;67.06;98817.81;5344463;23;20277;-86
2021/12/27 00:38:30;;;;;;;27.67;11.63;;;;;;;7.65;66.43;98818.16;4883071;29;20575;-86
2021/12/27 00:40:55;;;;;;;32.17;14.30;;;;;;;7.67;66.82;98815.50;4901420;29;20175;-87
2021/12/27 00:43:20;;;;;;;29.00;13.73;;;;;;;7.65;66.76;98832.97;4901499;29;20648;-87
2021/12/27 00:45:47;;;;;;;27.53;11.43;;;;;;;7.64;66.79;98831.28;4901445;29;20190;-86
2021/12/27 00:48:12;;;;;;;26.17;13.77;;;;;;;7.63;66.51;98830.41;4884837;29;20221;-87
2021/12/27 00:50:38;;;;;;;29.87;11.93;;;;;;;7.66;66.29;98830.28;4901249;29;20210;-87
2021/12/27 00:53:04;;;;;;;28.93;11.80;;;;;;;7.54;67.37;98830.00;4901280;29;20735;-88
2021/12/27 00:55:29;;;;;;;26.00;11.60;;;;;;;7.56;66.58;98829.03;4901218;29;20179;-87
2021/12/27 00:57:55;;;;;;;35.67;13.57;;;;;;;7.40;67.92;98839.28;4901108;29;20253;-88
2021/12/27 01:00:23;;;;;;;29.27;12.30;;;;;;;7.31;68.59;98841.47;4901374;29;20326;-88
2021/12/27 01:02:49;;;;;;;24.37;12.90;;;;;;;7.40;69.40;98846.25;4901092;29;20183;-88
2021/12/27 01:05:15;;;;;;;32.60;14.07;;;;;;;7.54;68.40;98838.69;4901062;29;20187;-87
2021/12/27 01:07:41;;;;;;;35.60;16.80;;;;;;;7.65;67.39;98827.75;4901310;29;20554;-87
2021/12/27 01:15:35;;;;;;;35.97;15.53;;;;;;;7.54;68.56;98828.25;4901700;29;20198;-87
2021/12/27 01:18:01;;;;;;;34.80;14.70;;;;;;;7.58;68.35;98826.34;4900847;29;20170;-87
2021/12/27 01:20:26;;;;;;;36.23;13.53;;;;;;;7.58;68.52;98821.13;4900800;29;20171;-86
2021/12/27 01:22:54;;;;;;;34.43;14.20;;;;;;;7.45;68.69;98813.00;4900719;29;20602;-86
2021/12/27 01:25:20;;;;;;;41.80;14.73;;;;;;;7.41;69.14;98817.53;4900818;29;20178;-86
2021/12/27 01:27:46;;;;;;;29.03;10.87;;;;;;;7.38;69.84;98811.59;4900635;29;20187;-86
2021/12/27 01:30:16;;;;;;;23.13;11.27;;;;;;;7.45;69.57;98805.19;4883996;29;20215;-86
2021/12/27 01:32:49;;;;;;;30.17;12.20;;;;;;;7.49;69.84;98788.50;4900734;29;20175;-86
2021/12/27 01:35:14;;;;;;;21.53;10.90;;;;;;;7.42;70.35;98774.03;4883876;29;20568;-87
2021/12/27 01:37:41;;;;;;;21.03;11.90;;;;;;;7.30;70.81;98777.19;4900560;29;20163;-87
2021/12/27 01:40:08;;;;;;;22.20;10.33;;;;;;;7.27;72.10;98777.34;4900745;29;20175;-87
2021/12/27 01:42:34;;;;;;;27.10;13.07;;;;;;;7.27;72.52;98792.97;4899973;29;20619;-88
2021/12/27 01:44:59;;;;;;;22.43;11.03;;;;;;;7.26;72.57;98765.22;4900910;29;20199;-88
2021/12/27 01:47:27;;;;;;;33.37;10.93;;;;;;;7.44;71.24;98754.78;4900547;29;20206;-87
2021/12/27 01:49:53;;;;;;;26.93;11.27;;;;;;;7.40;72.04;98752.41;4900037;29;20207;-86
2021/12/27 01:52:18;;;;;;;20.80;10.40;;;;;;;7.17;72.88;98770.84;4900220;29;20214;-87
2021/12/27 01:54:44;;;;;;;24.27;10.37;;;;;;;7.22;73.31;98767.13;4883649;29;20187;-86
2021/12/27 01:57:09;;;;;;;27.03;12.53;;;;;;;7.42;72.75;98750.56;4883586;29;20183;-87
2021/12/27 01:59:35;;;;;;;19.00;8.10;;;;;;;7.41;72.83;98744.53;4883631;29;20547;-86
2021/12/27 02:02:00;;;;;;;26.53;11.10;;;;;;;7.55;72.69;98759.50;4883542;29;20654;-86
2021/12/27 02:04:26;;;;;;;19.47;9.03;;;;;;;7.60;73.41;98767.97;4900013;29;20653;-87
2021/12/27 02:06:51;;;;;;;24.03;11.20;;;;;;;7.70;72.96;98764.03;4899952;29;20522;-86
2021/12/27 02:09:20;;;;;;;23.63;10.30;;;;;;;7.82;72.50;98755.63;4883404;29;20347;-86
2021/12/27 02:11:47;;;;;;;19.87;11.53;;;;;;;7.93;72.34;98757.72;4899769;29;20673;-86
2021/12/27 02:14:12;;;;;;;28.83;10.13;;;;;;;7.76;73.23;98755.91;4899908;29;20541;-87
2021/12/27 02:16:38;;;;;;;20.73;10.87;;;;;;;7.81;73.25;98760.88;4899834;29;20179;-87
2021/12/27 02:19:03;;;;;;;23.33;10.47;;;;;;;7.73;73.97;98765.66;4899780;29;20599;-87
2021/12/27 02:21:29;;;;;;;27.40;11.07;;;;;;;7.78;73.68;98776.72;4900553;29;20206;-86
2021/12/27 02:23:56;;;;;;;32.77;13.47;;;;;;;7.86;73.54;98785.84;4899706;29;20175;-87
2021/12/27 02:26:22;;;;;;;27.33;13.80;;;;;;;7.68;73.11;98770.25;4899646;29;20258;-86
2021/12/27 02:28:48;;;;;;;33.10;14.57;;;;;;;7.68;73.54;98770.25;4899613;29;20183;-86
2021/12/27 02:31:16;;;;;;;32.60;12.20;;;;;;;7.84;73.18;98771.19;4899431;29;20632;-87
2021/12/27 02:33:43;;;;;;;26.13;11.13;;;;;;;7.93;72.52;98774.22;4883034;29;20201;-87
2021/12/27 02:36:11;;;;;;;28.10;13.43;;;;;;;7.87;72.06;98769.28;4899220;29;20222;-87
2021/12/27 02:38:40;;;;;;;32.00;12.90;;;;;;;7.91;72.68;98765.59;4899956;29;20183;-86
2021/12/27 02:41:07;;;;;;;34.47;14.80;;;;;;;7.99;72.30;98753.03;4899838;29;20496;-87
2021/12/27 02:43:33;;;;;;;37.73;14.80;;;;;;;8.10;72.34;98751.69;4899331;29;20183;-87
2021/12/27 02:46:06;;;;;;;31.47;11.43;;;;;;;8.23;71.96;98747.56;4899270;29;20183;-86
2021/12/27 02:48:39;;;;;;;26.73;12.17;;;;;;;8.33;71.87;98754.06;4882775;29;20217;-86
2021/12/27 02:51:06;;;;;;;33.53;13.70;;;;;;;8.38;71.66;98747.69;4899282;29;20192;-86
2021/12/27 02:53:31;;;;;;;28.37;13.30;;;;;;;8.42;71.78;98757.03;4899069;29;20531;-86
2021/12/27 02:55:58;;;;;;;36.33;14.47;;;;;;;8.43;71.93;98757.88;4898362;29;20190;-87
2021/12/27 02:58:24;;;;;;;30.27;13.57;;;;;;;8.54;71.03;98753.81;4899365;29;20667;-87
2021/12/27 03:01:19;;;;;;;35.10;13.53;;;;;;;8.53;72.05;98757.34;4899019;29;20175;-86
2021/12/27 03:03:44;;;;;;;31.37;13.13;;;;;;;8.58;71.06;98746.66;4890530;29;20199;-86
2021/12/27 03:06:10;;;;;;;35.73;14.13;;;;;;;8.61;70.50;98754.34;4898924;29;20190;-86
2021/12/27 03:08:37;;;;;;;42.30;15.57;;;;;;;8.54;70.62;98747.75;4882618;29;20276;-86
2021/12/27 03:11:04;;;;;;;27.93;13.37;;;;;;;8.59;70.78;98756.22;4898746;29;20202;-86
2021/12/27 03:13:36;;;;;;;27.50;13.80;;;;;;;8.61;70.39;98747.38;4898771;29;20190;-86
2021/12/27 03:16:06;;;;;;;34.50;14.40;;;;;;;8.57;70.26;98729.28;4882294;29;20258;-86
2021/12/27 03:18:33;;;;;;;40.30;16.67;;;;;;;8.29;71.48;98734.22;4899270;29;20186;-86
2021/12/27 03:20:59;;;;;;;32.83;13.57;;;;;;;8.25;72.01;98737.88;4882408;29;20515;-86
2021/12/27 03:23:25;;;;;;;27.47;11.70;;;;;;;8.34;71.49;98738.28;4898609;29;20194;-87
2021/12/27 03:25:52;;;;;;;32.27;15.33;;;;;;;8.23;71.88;98726.69;4898596;29;20179;-87
2021/12/27 03:28:18;;;;;;;26.83;12.10;;;;;;;8.17;71.51;98729.59;4898535;29;20186;-87
2021/12/27 03:30:44;;;;;;;25.97;12.13;;;;;;;8.31;72.02;98733.22;4898240;29;20558;-87
2021/12/27 03:33:10;;;;;;;30.77;13.90;;;;;;;8.36;71.57;98733.03;4898740;29;20179;-87
2021/12/27 03:35:39;;;;;;;31.10;15.37;;;;;;;8.32;71.26;98714.03;4898360;29;20203;-87
2021/12/27 03:38:08;;;;;;;27.87;13.77;;;;;;;8.28;72.10;98716.88;4898407;29;20175;-86
2021/12/27 03:40:34;;;;;;;24.03;12.60;;;;;;;8.29;72.20;98735.06;4898611;29;20194;-86
2021/12/27 03:43:00;;;;;;;31.37;14.63;;;;;;;8.28;72.30;98722.09;4881833;29;20254;-87
2021/12/27 03:45:31;;;;;;;30.40;12.37;;;;;;;8.31;71.53;98727.16;4898444;29;20187;-87
2021/12/27 03:47:57;;;;;;;27.73;13.43;;;;;;;8.41;71.97;98728.41;4898546;29;20250;-87
2021/12/27 03:50:25;;;;;;;30.27;13.33;;;;;;;8.43;71.70;98729.16;4898908;29;20338;-87
2021/12/27 03:52:52;;;;;;;31.97;12.73;;;;;;;8.38;71.89;98720.72;4898179;29;20302;-87
2021/12/27 03:55:18;;;;;;;31.13;14.70;;;;;;;8.24;72.56;98712.69;4898414;29;20179;-87
2021/12/27 03:57:51;;;;;;;25.83;14.13;;;;;;;8.32;72.98;98713.19;4898367;29;20606;-87
2021/12/27 04:02:47;;;;;;;35.80;14.03;;;;;;;8.49;73.07;98706.19;4898021;29;20179;-87
2021/12/27 04:05:14;;;;;;;29.50;13.23;;;;;;;8.53;72.31;98709.50;4898116;29;20190;-86
2021/12/27 04:07:43;;;;;;;32.67;12.67;;;;;;;8.60;72.43;98713.47;4898033;29;20709;-86
2021/12/27 04:10:10;;;;;;;27.73;12.63;;;;;;;8.65;71.40;98722.75;4897888;29;20203;-86
2021/12/27 04:12:37;;;;;;;25.03;12.50;;;;;;;8.69;71.03;98713.00;4897837;29;20225;-86
2021/12/27 04:15:06;;;;;;;33.50;14.10;;;;;;;8.63;71.58;98705.47;4897845;29;20294;-86
2021/12/27 04:17:31;;;;;;;29.70;13.03;;;;;;;8.62;72.12;98703.81;4897887;29;20215;-86
2021/12/27 04:19:57;;;;;;;27.53;11.37;;;;;;;8.37;73.18;98719.00;4897918;29;20223;-86
2021/12/27 04:22:22;;;;;;;24.13;12.20;;;;;;;8.31;73.15;98712.34;4897890;29;20240;-86
2021/12/27 04:24:48;;;;;;;35.27;12.60;;;;;;;8.31;72.99;98701.03;4898138;29;20183;-86
2021/12/27 04:27:14;;;;;;;25.47;12.63;;;;;;;8.39;73.87;98714.56;4898156;29;20179;-87
2021/12/27 04:29:39;;;;;;;24.50;10.50;;;;;;;8.57;73.58;98718.84;4898371;29;20202;-86
2021/12/27 04:32:05;;;;;;;27.20;10.73;;;;;;;8.52;73.55;98732.16;4897702;29;20222;-86
2021/12/27 04:34:30;;;;;;;29.60;11.50;;;;;;;8.45;72.85;98750.81;4897838;29;20186;-86
2021/12/27 04:36:56;;;;;;;27.03;12.37;;;;;;;8.44;73.13;98741.28;4898491;29;20202;-86
2021/12/27 04:39:21;;;;;;;29.50;13.33;;;;;;;8.49;73.14;98745.34;4897731;29;20183;-86
2021/12/27 04:41:48;;;;;;;27.97;11.70;;;;;;;8.57;72.48;98745.81;4881223;29;20179;-86
2021/12/27 04:44:14;;;;;;;30.80;11.47;;;;;;;8.56;72.40;98748.53;4897819;29;20186;-85
2021/12/27 04:46:39;;;;;;;25.93;11.70;;;;;;;8.56;72.28;98751.13;4881518;29;20190;-86
2021/12/27 04:49:05;;;;;;;25.97;12.97;;;;;;;8.53;72.20;98746.91;4881208;29;20187;-86
2021/12/27 04:51:30;;;;;;;21.90;12.20;;;;;;;8.52;71.39;98753.03;4897619;29;20282;-87
2021/12/27 04:53:56;;;;;;;25.97;11.67;;;;;;;8.45;71.61;98742.97;4897601;29;20274;-86
2021/12/27 04:56:22;;;;;;;24.97;10.80;;;;;;;8.33;71.65;98743.59;4881098;29;20215;-87
2021/12/27 04:58:48;;;;;;;30.13;12.50;;;;;;;8.30;71.27;98735.94;4897865;29;20618;-87
2021/12/27 05:01:14;;;;;;;32.43;14.23;;;;;;;8.09;71.88;98744.78;4897523;29;20194;-87
2021/12/27 05:03:39;;;;;;;31.73;14.00;;;;;;;8.14;72.47;98748.84;4897550;29;20180;-87
2021/12/27 05:06:06;;;;;;;27.13;13.47;;;;;;;8.16;71.92;98753.97;4897477;29;20625;-87
2021/12/27 05:08:32;;;;;;;23.30;10.43;;;;;;;7.89;71.96;98749.19;4897506;29;20190;-88
2021/12/27 05:10:57;;;;;;;26.33;10.73;;;;;;;7.78;72.44;98750.63;4880965;29;20199;-86
2021/12/27 05:13:23;;;;;;;29.43;12.93;;;;;;;7.80;72.38;98752.25;4897476;29;20194;-87
2021/12/27 05:15:48;;;;;;;31.90;13.13;;;;;;;7.91;72.22;98752.56;4897710;29;20619;-87
2021/12/27 05:18:14;;;;;;;28.47;12.43;;;;;;;7.91;71.32;98765.59;4898863;29;20210;-87
2021/12/27 05:20:40;;;;;;;29.73;12.47;;;;;;;7.88;71.34;98776.22;4900804;29;20618;-87
2021/12/27 05:23:05;;;;;;;26.13;11.20;;;;;;;7.77;71.91;98770.66;4901052;29;20288;-87
2021/12/27 05:25:31;;;;;;;25.60;13.33;;;;;;;7.88;70.81;98773.59;4901316;29;20179;-87
2021/12/27 05:27:56;;;;;;;38.07;13.33;;;;;;;7.89;71.41;98767.44;4900991;29;20570;-87
2021/12/27 05:30:22;;;;;;;25.63;12.13;;;;;;;7.93;70.68;98750.75;4900868;29;20202;-86
2021/12/27 05:32:48;;;;;;;26.97;12.13;;;;;;;7.91;70.88;98756.97;4884103;29;20187;-84
2021/12/27 05:35:14;;;;;;;35.30;13.23;;;;;;;7.94;70.25;98757.63;4900429;29;20258;-85
2021/12/27 05:37:39;;;;;;;37.57;11.80;;;;;;;7.99;69.73;98765.25;4900861;29;20174;-87
2021/12/27 05:40:07;;;;;;;23.80;10.80;;;;;;;7.88;70.06;98765.78;4900530;29;20220;-88
2021/12/27 05:42:35;;;;;;;26.70;11.67;;;;;;;7.74;70.01;98768.19;4900323;29;20179;-87
2021/12/27 05:45:02;;;;;;;22.33;10.13;;;;;;;7.88;68.75;98757.94;4900421;29;20294;-88
2021/12/27 05:47:28;;;;;;;21.57;10.50;;;;;;;7.84;69.27;98764.22;4883797;29;20187;-87
2021/12/27 05:49:53;;;;;;;18.97;10.43;;;;;;;7.74;69.24;98760.34;4900257;29;20536;-87
2021/12/27 05:52:19;;;;;;;20.67;11.27;;;;;;;7.74;69.29;98762.97;4900085;29;20646;-87
2021/12/27 05:54:44;;;;;;;19.80;10.67;;;;;;;7.81;68.84;98768.72;4883679;29;20241;-88
2021/12/27 05:57:10;;;;;;;26.23;11.67;;;;;;;7.79;69.27;98760.97;4900212;29;20605;-87
2021/12/27 05:59:35;;;;;;;23.70;12.10;;;;;;;7.75;69.21;98759.44;4900109;29;20183;-87
2021/12/27 06:02:01;;;;;;;28.03;14.97;;;;;;;7.51;69.90;98768.41;4900075;29;20183;-88
2021/12/27 06:04:27;;;;;;;35.77;15.83;;;;;;;7.54;70.20;98757.00;4883524;29;20597;-88
2021/12/27 06:06:52;;;;;;;36.73;16.10;;;;;;;7.45;70.58;98758.25;4900275;29;20839;-87
2021/12/27 06:09:17;;;;;;;26.87;13.40;;;;;;;7.40;71.19;98773.25;4883470;29;20191;-85
2021/12/27 06:11:43;;;;;;;37.63;18.17;;;;;;;7.39;71.28;98775.00;4883327;29;20238;-86
2021/12/27 06:14:09;;;;;;;27.23;16.17;;;;;;;7.48;71.36;98776.38;4900748;29;20218;-86
2021/12/27 06:16:34;;;;;;;36.30;16.37;;;;;;;7.60;70.56;98765.34;4883857;29;20210;-87
2021/12/27 06:19:00;;;;;;;31.07;14.13;;;;;;;7.65;70.15;98768.59;4899853;29;20637;-87
2021/12/27 06:21:25;;;;;;;37.60;14.63;;;;;;;7.68;70.54;98771.06;4899800;29;20629;-88
2021/12/27 06:23:51;;;;;;;35.63;14.33;;;;;;;7.67;70.34;98766.78;4899948;29;20611;-87
2021/12/27 06:26:17;;;;;;;41.50;13.43;;;;;;;7.74;70.40;98772.53;4899938;29;20274;-89
2021/12/27 06:28:44;;;;;;;25.07;13.07;;;;;;;7.71;70.67;98773.53;4900129;29;20219;-86
2021/12/27 06:31:09;;;;;;;27.87;13.63;;;;;;;7.72;71.23;98770.03;4899567;29;20199;-85
2021/12/27 06:33:35;;;;;;;42.40;19.30;;;;;;;7.71;70.78;98767.47;4900130;29;20198;-85
2021/12/27 06:36:01;;;;;;;41.20;20.47;;;;;;;7.79;71.27;98766.19;4882693;29;20290;-86
2021/12/27 06:38:26;;;;;;;36.30;17.60;;;;;;;7.80;71.57;98772.25;4899916;29;20210;-89
2021/12/27 06:40:52;;;;;;;37.03;17.20;;;;;;;7.83;71.83;98778.19;4899397;29;20634;-88
2021/12/27 06:43:18;;;;;;;46.83;19.90;;;;;;;7.70;72.24;98781.44;4897436;29;20273;-88
2021/12/27 06:45:44;;;;;;;42.60;21.70;;;;;;;7.73;72.61;98784.72;4871545;29;20216;-93
2021/12/27 06:48:10;;;;;;;65.13;28.13;;;;;;;7.82;72.46;98773.03;4895585;29;20616;-91
2021/12/27 06:50:36;;;;;;;66.17;25.93;;;;;;;7.95;71.64;98782.81;4869831;29;20275;-92
2021/12/27 06:53:03;;;;;;;71.33;30.00;;;;;;;8.01;72.02;98781.69;4874935;29;20190;-93
2021/12/27 06:55:29;;;;;;;58.40;21.77;;;;;;;7.99;71.47;98773.91;4883752;29;20222;-88
2021/12/27 06:57:54;;;;;;;55.37;22.73;;;;;;;8.04;71.57;98761.47;4880978;29;20270;-88
2021/12/27 07:00:23;;;;;;;51.50;22.63;;;;;;;8.14;71.25;98772.34;4880441;29;20226;-88
2021/12/27 07:02:49;;;;;;;61.03;24.00;;;;;;;8.19;71.10;98766.91;4882160;29;20262;-87
2021/12/27 07:05:14;;;;;;;54.53;24.03;;;;;;;8.23;70.78;98758.81;4882545;29;20606;-87
2021/12/27 07:07:40;;;;;;;50.37;21.90;;;;;;;8.31;70.29;98763.69;4898993;29;20725;-85
2021/12/27 07:10:12;;;;;;;39.77;18.87;;;;;;;8.31;70.18;98768.94;4898874;29;20206;-87
2021/12/27 07:12:37;;;;;;;55.70;22.73;;;;;;;8.19;70.63;98765.13;4899119;29;20547;-89
2021/12/27 07:15:03;;;;;;;26.27;11.80;;;;;;;8.14;70.96;98761.91;4898763;29;20645;-89
2021/12/27 07:17:29;;;;;;;29.87;12.43;;;;;;;8.10;71.19;98747.28;4899522;29;20183;-89
2021/12/27 07:19:54;;;;;;;22.70;9.63;;;;;;;8.05;72.00;98747.53;4898929;29;20194;-89
2021/12/27 07:22:22;;;;;;;27.17;11.53;;;;;;;7.98;71.88;98753.97;4898527;29;20183;-89
2021/12/27 07:24:47;;;;;;;25.83;12.67;;;;;;;8.03;71.94;98753.75;4898859;29;20681;-88
2021/12/27 07:27:13;;;;;;;29.90;12.17;;;;;;;8.07;72.53;98748.28;4882079;29;20274;-89
2021/12/27 07:29:38;;;;;;;34.17;13.33;;;;;;;8.02;71.69;98760.72;4898541;29;20513;-89
2021/12/27 07:32:04;;;;;;;31.57;13.27;;;;;;;8.09;71.92;98763.91;4898685;29;20281;-89
2021/12/27 07:34:30;;;;;;;25.73;11.97;;;;;;;8.22;70.83;98759.78;4882264;29;20222;-90
2021/12/27 07:36:56;;;;;;;25.50;12.87;;;;;;;8.23;70.71;98758.81;4881863;29;20199;-89
2021/12/27 07:39:23;;;;;;;29.23;12.23;;;;;;;8.21;70.87;98759.81;4898902;29;20734;-90
2021/12/27 07:41:49;;;;;;;29.83;12.17;;;;;;;8.21;70.89;98763.28;4881477;29;20180;-89
2021/12/27 07:44:15;;;;;;;32.30;14.57;;;;;;;8.29;70.47;98766.41;4898286;29;20190;-89
2021/12/27 07:46:42;;;;;;;34.13;14.13;;;;;;;8.25;71.15;98750.94;4898537;29;20190;-90
2021/12/27 07:49:09;;;;;;;28.90;13.47;;;;;;;8.01;71.43;98743.38;4898468;29;20634;-89
2021/12/27 07:51:35;;;;;;;35.73;15.30;;;;;;;8.21;71.81;98758.06;4898113;29;20206;-89
2021/12/27 07:54:01;;;;;;;33.53;15.67;;;;;;;8.21;72.11;98765.03;4898725;29;20622;-89
2021/12/27 07:56:27;;;;;;;33.57;14.97;;;;;;;8.12;71.70;98768.13;4898109;29;20176;-89
2021/12/27 07:58:55;;;;;;;30.37;13.50;;;;;;;8.25;72.07;98761.38;4898621;29;20265;-89
2021/12/27 08:01:21;;;;;;;33.83;15.03;;;;;;;8.43;71.50;98769.19;4898340;29;20182;-89
2021/12/27 08:03:47;;;;;;;33.77;16.30;;;;;;;8.55;71.78;98757.25;4898076;29;20209;-89
2021/12/27 08:06:15;;;;;;;31.07;13.77;;;;;;;8.68;71.86;98755.72;4897996;29;20183;-89
2021/12/27 08:08:40;;;;;;;33.30;15.13;;;;;;;8.74;71.21;98757.19;4898018;29;20269;-89
2021/12/27 08:11:06;;;;;;;26.03;15.30;;;;;;;8.84;71.21;98754.03;4897967;29;20283;-89
2021/12/27 08:13:31;;;;;;;34.37;16.07;;;;;;;8.94;70.99;98750.00;4898207;29;20179;-89
2021/12/27 08:15:57;;;;;;;30.00;15.00;;;;;;;9.10;71.16;98755.28;4881708;29;20215;-89
2021/12/27 08:18:23;;;;;;;33.90;15.83;;;;;;;8.99;71.00;98753.22;4897941;29;20223;-88
2021/12/27 08:20:48;;;;;;;43.37;18.10;;;;;;;9.16;70.74;98757.56;4897884;29;20681;-88
2021/12/27 08:23:15;;;;;;;33.80;16.63;;;;;;;9.30;70.88;98754.22;4898145;29;20578;-89
2021/12/27 08:25:41;;;;;;;38.00;16.00;;;;;;;9.31;71.20;98761.97;4898374;29;20182;-89
2021/12/27 08:28:07;;;;;;;32.50;14.70;;;;;;;9.39;71.17;98762.41;4898374;29;20200;-89
2021/12/27 08:30:32;;;;;;;30.87;14.97;;;;;;;9.47;70.06;98755.00;4881233;29;20244;-89
2021/12/27 08:32:59;;;;;;;38.50;16.53;;;;;;;9.50;70.12;98751.38;4881552;29;20203;-89
2021/12/27 08:35:28;;;;;;;38.00;15.40;;;;;;;9.57;69.80;98744.88;4897675;29;20195;-89
2021/12/27 08:37:53;;;;;;;30.90;16.30;;;;;;;9.62;69.84;98743.69;4897770;29;20190;-90
2021/12/27 08:40:22;;;;;;;36.77;15.20;;;;;;;9.70;69.34;98743.28;4897792;29;20182;-90
2021/12/27 08:42:48;;;;;;;38.27;15.00;;;;;;;9.80;69.06;98749.72;4880985;29;20199;-89
2021/12/27 08:45:13;;;;;;;31.13;14.83;;;;;;;9.90;69.05;98740.41;4897698;29;20204;-89
2021/12/27 08:47:42;;;;;;;31.37;14.63;;;;;;;9.96;69.21;98737.44;4897665;29;20181;-89
2021/12/27 08:50:12;;;;;;;34.60;15.87;;;;;;;10.00;69.51;98728.47;4897670;29;20251;-89
2021/12/27 08:52:41;;;;;;;33.77;16.03;;;;;;;10.02;69.52;98726.63;4881817;29;20616;-89
2021/12/27 08:55:07;;;;;;;40.20;17.23;;;;;;;10.11;68.96;98726.09;4901256;29;20253;-89
2021/12/27 08:57:33;;;;;;;35.67;15.23;;;;;;;10.10;68.54;98718.31;4901206;29;20179;-88
2021/12/27 08:59:59;;;;;;;38.53;16.37;;;;;;;10.14;69.24;98712.03;4901773;29;20201;-90
2021/12/27 09:02:25;;;;;;;25.53;14.40;;;;;;;10.08;69.44;98715.81;4893623;29;20194;-89
2021/12/27 09:04:50;;;;;;;34.67;15.50;;;;;;;9.97;70.06;98709.47;4882427;29;20262;-89
2021/12/27 09:07:18;;;;;;;37.67;16.00;;;;;;;9.93;70.48;98706.22;4882409;29;20191;-89
2021/12/27 09:09:44;;;;;;;44.40;20.00;;;;;;;9.91;71.57;98700.19;4882860;29;20191;-89
2021/12/27 09:12:10;;;;;;;47.20;18.50;;;;;;;9.93;71.30;98700.97;4882533;29;20207;-89
2021/12/27 09:14:36;;;;;;;39.87;17.57;;;;;;;10.07;70.88;98694.94;4882297;29;20254;-89
2021/12/27 09:17:02;;;;;;;53.60;19.97;;;;;;;10.12;70.26;98695.50;4882495;29;20176;-89
2021/12/27 09:19:27;;;;;;;45.00;23.60;;;;;;;10.15;69.84;98685.72;4882202;29;20687;-89
2021/12/27 09:21:53;;;;;;;66.20;30.50;;;;;;;10.03;69.88;98678.56;4882384;29;20180;-89
2021/12/27 09:24:19;;;;;;;47.57;22.00;;;;;;;9.97;70.70;98684.16;4865631;29;20531;-90
2021/12/27 09:26:45;;;;;;;57.03;24.77;;;;;;;9.89;71.98;98662.78;4882313;29;20180;-89
2021/12/27 09:29:10;;;;;;;45.33;22.87;;;;;;;10.03;72.24;98670.72;4881998;29;20247;-89
2021/12/27 09:31:36;;;;;;;48.47;23.50;;;;;;;10.24;72.62;98661.66;4865446;29;20217;-90
2021/12/27 09:34:02;;;;;;;43.63;22.20;;;;;;;10.37;72.50;98660.00;4881934;29;20184;-89
2021/12/27 09:36:28;;;;;;;51.67;21.27;;;;;;;10.51;73.31;98653.09;4881781;29;20290;-89
2021/12/27 09:38:53;;;;;;;46.77;20.93;;;;;;;10.72;73.04;98649.97;4881810;29;20649;-89
2021/12/27 09:41:19;;;;;;;52.30;23.20;;;;;;;10.86;73.54;98646.53;4881776;29;20180;-89
2021/12/27 09:43:46;;;;;;;43.33;20.10;;;;;;;11.00;73.86;98641.28;4881751;29;20180;-89
2021/12/27 09:46:11;;;;;;;43.07;20.30;;;;;;;11.07;75.18;98635.56;4881680;29;20184;-89
2021/12/27 09:48:38;;;;;;;39.63;18.03;;;;;;;11.22;75.67;98633.75;4881647;29;20619;-89
2021/12/27 09:51:04;;;;;;;33.73;15.40;;;;;;;11.20;77.92;98630.38;4881534;29;20203;-89
2021/12/27 09:53:30;;;;;;;30.67;14.33;;;;;;;11.28;80.38;98635.13;4865436;29;20555;-90
2021/12/27 09:55:55;;;;;;;20.60;9.43;;;;;;;11.34;82.53;98627.75;4865408;29;20238;-89
2021/12/27 09:58:21;;;;;;;17.30;7.67;;;;;;;11.63;83.83;98629.31;4881530;29;20564;-90
2021/12/27 10:00:46;;;;;;;5.57;3.27;;;;;;;11.97;84.44;98628.00;4881477;29;20183;-89
2021/12/27 10:03:12;;;;;;;6.20;1.93;;;;;;;12.28;85.30;98629.41;4881427;29;20183;-90
2021/12/27 10:05:38;;;;;;;4.63;1.67;;;;;;;12.64;83.49;98626.06;4890370;29;20191;-90
2021/12/27 10:08:04;;;;;;;2.93;1.20;;;;;;;12.97;82.14;98617.63;4897920;29;20196;-88
2021/12/27 10:10:32;;;;;;;4.03;1.60;;;;;;;13.24;80.43;98620.94;4864776;29;20212;-90
2021/12/27 10:12:58;;;;;;;5.30;2.57;;;;;;;13.59;78.52;98619.25;4883521;29;20198;-88
2021/12/27 10:15:36;;;;;;;5.20;2.33;;;;;;;13.86;77.33;98619.03;4898957;29;20195;-88
2021/12/27 10:18:13;;;;;;;6.83;2.33;;;;;;;14.04;76.18;98610.59;4898712;29;20205;-90
2021/12/27 10:20:40;;;;;;;8.23;2.30;;;;;;;14.19;75.55;98613.84;4899826;29;20168;-89
2021/12/27 10:23:05;;;;;;;7.37;2.33;;;;;;;14.37;75.01;98611.66;4899427;29;20187;-89
2021/12/27 10:25:31;;;;;;;6.50;2.03;;;;;;;14.63;73.38;98613.97;4899375;29;20338;-89
2021/12/27 10:27:59;;;;;;;5.33;2.27;;;;;;;14.75;72.43;98606.91;4899715;29;20243;-89
2021/12/27 10:30:28;;;;;;;8.03;2.93;;;;;;;14.98;71.75;98608.59;4900142;29;20287;-89
2021/12/27 10:33:19;;;;;;;;;;;;;;;;;;;;;
2021/12/27 10:35:57;;;;;;;10.90;2.97;;;;;;;15.27;70.17;98607.13;4899530;29;20196;-91
2021/12/27 10:38:29;;;;;;;7.03;2.63;;;;;;;15.35;69.35;98596.78;4899818;29;20240;-89
2021/12/27 10:41:08;;;;;;;9.63;3.30;;;;;;;15.51;68.46;98590.28;4882479;29;20270;-88
2021/12/27 10:43:50;;;;;;;11.60;3.30;;;;;;;15.71;67.11;98598.25;4897354;29;20188;-88
2021/12/27 10:46:19;;;;;;;4.60;2.73;;;;;;;15.82;66.47;98594.75;4899255;29;20232;-88
2021/12/27 10:49:22;;;;;;;10.37;3.80;;;;;;;16.04;66.00;98589.34;4899039;29;20640;-86
2021/12/27 10:51:48;;;;;;;20.90;6.53;;;;;;;16.11;65.67;98582.59;4881181;29;20255;-87
2021/12/27 10:54:14;;;;;;;7.20;3.20;;;;;;;16.16;65.14;98576.91;4899484;29;20179;-87
2021/12/27 10:56:56;;;;;;;10.20;3.83;;;;;;;16.37;64.74;98575.94;4882601;29;20200;-89
2021/12/27 10:59:21;;;;;;;5.33;2.30;;;;;;;16.34;64.25;98578.00;4882865;29;20538;-88
2021/12/27 11:01:48;;;;;;;12.40;3.20;;;;;;;16.51;63.89;98574.75;4899083;29;20182;-87
2021/12/27 11:04:19;;;;;;;7.17;2.87;;;;;;;16.67;63.54;98572.50;4898808;29;20261;-87
2021/12/27 11:06:45;;;;;;;12.77;3.43;;;;;;;16.75;63.11;98570.03;4894541;29;20211;-88
2021/12/27 11:09:14;;;;;;;9.83;2.20;;;;;;;16.84;62.96;98573.69;4893075;29;20563;-87
2021/12/27 11:11:39;;;;;;;7.17;3.20;;;;;;;16.91;62.60;98569.53;4881415;29;20645;-87
2021/12/27 11:14:05;;;;;;;6.73;2.17;;;;;;;16.86;61.61;98563.81;4897255;29;20683;-88
2021/12/27 11:16:31;;;;;;;4.33;1.87;;;;;;;16.88;61.76;98560.03;4898050;29;20262;-87
2021/12/27 11:18:59;;;;;;;2.90;1.47;;;;;;;16.98;61.13;98554.81;4898511;29;20265;-88
2021/12/27 11:21:33;;;;;;;5.87;2.60;;;;;;;16.98;61.39;98545.03;4902767;29;20182;-87
2021/12/27 11:24:00;;;;;;;9.27;2.23;;;;;;;16.97;61.20;98547.81;4914708;29;20174;-87
2021/12/27 11:26:32;;;;;;;7.23;2.27;;;;;;;17.03;61.51;98545.47;4898657;29;20189;-88
2021/12/27 11:29:21;;;;;;;9.53;2.40;;;;;;;17.08;60.82;98542.44;4898642;29;20190;-87
2021/12/27 11:31:49;;;;;;;5.80;2.47;;;;;;;17.13;61.31;98537.56;4898815;29;20199;-86
2021/12/27 11:34:16;;;;;;;4.57;1.50;;;;;;;17.10;60.43;98536.03;4881994;29;20545;-86
2021/12/27 11:36:55;;;;;;;6.00;2.33;;;;;;;17.13;59.66;98529.63;4898376;29;20194;-88
2021/12/27 11:39:25;;;;;;;4.50;1.97;;;;;;;17.27;59.67;98531.84;4899011;29;20167;-86
2021/12/27 11:41:58;;;;;;;4.73;2.00;;;;;;;17.30;58.72;98522.78;4898428;29;20239;-87
2021/12/27 11:44:44;;;;;;;6.93;1.30;;;;;;;17.24;59.07;98533.94;4898366;29;20221;-87
2021/12/27 11:47:11;;;;;;;9.23;2.13;;;;;;;17.19;59.14;98521.09;4881857;29;20194;-88
2021/12/27 11:49:43;;;;;;;5.83;1.90;;;;;;;17.34;58.56;98519.75;4896832;29;20199;-85
2021/12/27 11:52:17;;;;;;;6.43;1.87;;;;;;;17.39;58.80;98533.41;4896987;29;20206;-87
2021/12/27 11:55:02;;;;;;;6.77;2.73;;;;;;;17.43;58.61;98529.50;4891222;29;20179;-86
2021/12/27 11:57:45;;;;;;;7.37;1.87;;;;;;;17.47;58.02;98515.03;4897672;29;20178;-86
2021/12/27 12:00:20;;;;;;;5.40;1.97;;;;;;;17.39;58.06;98520.16;4880659;29;20583;-87
2021/12/27 12:02:50;;;;;;;7.47;2.30;;;;;;;17.45;58.21;98519.59;4880517;29;20237;-87
2021/12/27 12:05:47;;;;;;;8.80;2.47;;;;;;;17.39;57.60;98511.38;4881184;29;20194;-86
2021/12/27 12:08:39;;;;;;;3.47;1.50;;;;;;;17.35;57.50;98507.34;4897511;29;20183;-87
2021/12/27 12:11:06;;;;;;;3.73;1.77;;;;;;;17.33;57.12;98502.16;4896422;29;20281;-85